createdAt,value
2023-04-07T00:00:03.990Z,90.61
2023-04-07T00:01:03.999Z,90.61
2023-04-07T00:02:03.998Z,90.72
2023-04-07T00:03:04.035Z,91.13
2023-04-07T00:04:04.325Z,91.54
2023-04-07T00:05:03.979Z,91.64
2023-04-07T00:06:03.997Z,91.64
2023-04-07T00:07:03.891Z,91.64
2023-04-07T00:08:03.909Z,92.00
2023-04-07T00:09:03.871Z,92.10
2023-04-07T00:10:03.852Z,92.00
2023-04-07T00:11:03.875Z,92.21
2023-04-07T00:12:03.824Z,92.16
2023-04-07T00:13:03.838Z,92.16
2023-04-07T00:14:03.771Z,92.06
2023-04-07T00:15:03.792Z,91.85
2023-04-07T00:16:03.826Z,91.79
2023-04-07T00:17:03.785Z,91.75
2023-04-07T00:18:03.784Z,91.85
2023-04-07T00:19:03.717Z,91.96
2023-04-07T00:20:03.709Z,91.96
2023-04-07T00:21:03.691Z,91.85
2023-04-07T00:22:03.683Z,91.75
2023-04-07T00:23:03.690Z,91.85
2023-04-07T00:24:03.695Z,91.85
2023-04-07T00:25:03.711Z,91.85
2023-04-07T00:26:03.605Z,91.85
2023-04-07T00:27:03.658Z,91.96
2023-04-07T00:28:03.601Z,92.06
2023-04-07T00:29:03.596Z,91.96
2023-04-07T00:30:03.604Z,91.85
2023-04-07T00:31:03.617Z,91.85
2023-04-07T00:32:03.533Z,91.75
2023-04-07T00:33:03.611Z,91.75
2023-04-07T00:34:03.548Z,91.75
2023-04-07T00:35:03.509Z,91.85
2023-04-07T00:36:03.683Z,91.96
2023-04-07T00:37:03.481Z,92.06
2023-04-07T00:38:03.492Z,92.16
2023-04-07T00:39:03.421Z,92.27
2023-04-07T00:40:03.473Z,92.16
2023-04-07T00:41:03.397Z,91.96
2023-04-07T00:42:03.555Z,91.85
2023-04-07T00:43:03.404Z,91.64
2023-04-07T00:44:03.406Z,91.54
2023-04-07T00:45:03.373Z,91.64
2023-04-07T00:46:03.389Z,91.64
2023-04-07T00:47:03.371Z,91.69
2023-04-07T00:48:03.486Z,91.69
2023-04-07T00:49:03.318Z,91.89
2023-04-07T00:50:03.308Z,92.00
2023-04-07T00:51:03.270Z,91.89
2023-04-07T00:52:03.312Z,91.79
2023-04-07T00:53:03.255Z,91.94
2023-04-07T00:54:03.326Z,92.46
2023-04-07T00:55:03.240Z,92.86
2023-04-07T00:56:03.233Z,93.18
2023-04-07T00:57:03.240Z,93.59
2023-04-07T00:58:03.193Z,93.84
2023-04-07T00:59:03.149Z,93.94
2023-04-07T01:00:03.330Z,93.90
2023-04-07T01:01:03.131Z,93.79
2023-04-07T01:02:03.253Z,93.59
2023-04-07T01:03:03.451Z,93.38
2023-04-07T01:04:03.196Z,93.18
2023-04-07T01:05:03.107Z,93.12
2023-04-07T01:06:03.227Z,93.32
2023-04-07T01:07:03.074Z,93.38
2023-04-07T01:08:03.063Z,93.28
2023-04-07T01:09:03.045Z,93.07
2023-04-07T01:10:03.054Z,92.86
2023-04-07T01:11:03.001Z,92.76
2023-04-07T01:12:03.070Z,92.97
2023-04-07T01:13:03.007Z,93.07
2023-04-07T01:14:02.999Z,92.97
2023-04-07T01:15:02.972Z,92.46
2023-04-07T01:16:02.997Z,92.14
2023-04-07T01:17:02.941Z,91.38
2023-04-07T01:18:03.074Z,91.17
2023-04-07T01:19:02.884Z,90.86
2023-04-07T01:20:02.928Z,90.66
2023-04-07T01:21:02.878Z,90.35
2023-04-07T01:22:02.877Z,90.25
2023-04-07T01:23:02.838Z,90.14
2023-04-07T01:24:02.971Z,89.89
2023-04-07T01:25:02.809Z,89.58
2023-04-07T01:26:02.873Z,89.38
2023-04-07T01:27:02.795Z,88.86
2023-04-07T01:28:02.791Z,88.65
2023-04-07T01:29:02.772Z,88.14
2023-04-07T01:30:02.886Z,88.35
2023-04-07T01:31:02.750Z,88.45
2023-04-07T01:32:02.843Z,88.04
2023-04-07T01:33:02.753Z,87.73
2023-04-07T01:34:02.727Z,87.73
2023-04-07T01:35:02.715Z,87.63
2023-04-07T01:36:02.799Z,87.21
2023-04-07T01:37:02.734Z,87.21
2023-04-07T01:38:02.653Z,87.42
2023-04-07T01:39:02.639Z,87.93
2023-04-07T01:40:02.659Z,87.93
2023-04-07T01:41:02.594Z,88.18
2023-04-07T01:42:02.668Z,88.59
2023-04-07T01:43:02.582Z,88.59
2023-04-07T01:44:02.585Z,89.11
2023-04-07T01:45:03.525Z,89.11
2023-04-07T01:46:02.546Z,88.70
2023-04-07T01:47:02.595Z,88.49
2023-04-07T01:48:02.689Z,88.18
2023-04-07T01:49:02.481Z,88.18
2023-04-07T01:50:02.530Z,88.70
2023-04-07T01:51:02.488Z,88.18
2023-04-07T01:52:02.510Z,87.87
2023-04-07T01:53:02.442Z,88.29
2023-04-07T01:54:02.505Z,88.22
2023-04-07T01:55:02.463Z,87.92
2023-04-07T01:56:02.413Z,87.81
2023-04-07T01:57:02.410Z,88.02
2023-04-07T01:58:02.391Z,88.12
2023-04-07T01:59:02.341Z,88.32
2023-04-07T02:00:02.445Z,88.12
2023-04-07T02:01:02.336Z,88.12
2023-04-07T02:02:02.453Z,88.02
2023-04-07T02:03:02.592Z,87.81
2023-04-07T02:04:02.332Z,87.19
2023-04-07T02:05:03.271Z,86.16
2023-04-07T02:06:02.324Z,85.95
2023-04-07T02:07:02.257Z,85.85
2023-04-07T02:08:02.293Z,85.54
2023-04-07T02:09:02.258Z,85.54
2023-04-07T02:10:02.237Z,85.33
2023-04-07T02:11:02.186Z,85.44
2023-04-07T02:12:02.257Z,85.75
2023-04-07T02:13:02.167Z,85.85
2023-04-07T02:14:02.197Z,86.51
2023-04-07T02:15:02.159Z,86.92
2023-04-07T02:16:02.190Z,86.71
2023-04-07T02:17:02.160Z,86.61
2023-04-07T02:18:02.256Z,86.61
2023-04-07T02:19:02.083Z,85.99
2023-04-07T02:20:02.125Z,85.68
2023-04-07T02:21:02.067Z,85.27
2023-04-07T02:22:02.087Z,85.99
2023-04-07T02:23:02.053Z,85.78
2023-04-07T02:24:02.070Z,85.47
2023-04-07T02:25:02.004Z,85.78
2023-04-07T02:26:02.064Z,85.68
2023-04-07T02:27:02.161Z,85.47
2023-04-07T02:28:02.001Z,85.68
2023-04-07T02:29:01.979Z,85.47
2023-04-07T02:30:02.083Z,85.58
2023-04-07T02:31:01.924Z,85.68
2023-04-07T02:32:02.101Z,85.68
2023-04-07T02:33:01.964Z,85.58
2023-04-07T02:34:01.930Z,85.78
2023-04-07T02:35:01.929Z,85.78
2023-04-07T02:36:01.996Z,86.10
2023-04-07T02:37:01.873Z,85.89
2023-04-07T02:38:01.879Z,85.58
2023-04-07T02:39:01.805Z,85.78
2023-04-07T02:40:01.861Z,86.10
2023-04-07T02:41:01.792Z,86.20
2023-04-07T02:42:01.851Z,85.99
2023-04-07T02:43:01.811Z,85.47
2023-04-07T02:44:01.788Z,85.47
2023-04-07T02:45:01.755Z,85.68
2023-04-07T02:46:01.760Z,85.89
2023-04-07T02:47:01.705Z,86.10
2023-04-07T02:48:01.947Z,86.20
2023-04-07T02:49:01.669Z,85.89
2023-04-07T02:50:01.723Z,84.86
2023-04-07T02:51:01.677Z,84.55
2023-04-07T02:52:01.685Z,84.23
2023-04-07T02:53:01.649Z,84.75
2023-04-07T02:54:01.753Z,84.55
2023-04-07T02:55:01.613Z,84.13
2023-04-07T02:56:01.642Z,84.34
2023-04-07T02:57:01.637Z,84.55
2023-04-07T02:58:01.590Z,84.75
2023-04-07T02:59:01.547Z,84.96
2023-04-07T03:00:01.667Z,84.44
2023-04-07T03:01:01.523Z,84.55
2023-04-07T03:02:01.667Z,84.03
2023-04-07T03:03:01.680Z,84.86
2023-04-07T03:04:01.740Z,84.86
2023-04-07T03:05:01.493Z,85.06
2023-04-07T03:06:01.493Z,85.06
2023-04-07T03:07:01.454Z,85.37
2023-04-07T03:08:01.479Z,85.27
2023-04-07T03:09:01.404Z,85.47
2023-04-07T03:10:01.449Z,85.17
2023-04-07T03:11:01.404Z,85.95
2023-04-07T03:12:01.424Z,85.85
2023-04-07T03:13:01.372Z,86.26
2023-04-07T03:14:01.404Z,86.16
2023-04-07T03:15:01.370Z,86.36
2023-04-07T03:16:01.338Z,86.68
2023-04-07T03:17:01.361Z,86.98
2023-04-07T03:18:01.427Z,87.08
2023-04-07T03:19:01.291Z,87.40
2023-04-07T03:20:01.305Z,87.40
2023-04-07T03:21:01.245Z,87.60
2023-04-07T03:22:01.280Z,87.81
2023-04-07T03:23:01.232Z,87.71
2023-04-07T03:24:01.375Z,87.71
2023-04-07T03:25:01.213Z,87.50
2023-04-07T03:26:01.205Z,87.81
2023-04-07T03:27:01.161Z,87.92
2023-04-07T03:28:01.198Z,87.92
2023-04-07T03:29:01.180Z,87.81
2023-04-07T03:30:01.181Z,87.60
2023-04-07T03:31:01.137Z,87.50
2023-04-07T03:32:01.141Z,87.60
2023-04-07T03:33:01.162Z,87.71
2023-04-07T03:34:01.116Z,87.50
2023-04-07T03:35:01.069Z,87.50
2023-04-07T03:36:01.138Z,87.81
2023-04-07T03:37:01.079Z,88.02
2023-04-07T03:38:01.041Z,88.12
2023-04-07T03:39:01.002Z,88.22
2023-04-07T03:40:01.055Z,88.22
2023-04-07T03:43:27.511Z,88.64
2023-04-07T03:48:02.405Z,88.95
2023-04-07T03:49:31.308Z,88.95
2023-04-07T03:50:36.507Z,89.15
2023-04-07T03:51:02.095Z,89.56
2023-04-07T03:53:17.013Z,90.28
2023-04-07T03:54:33.355Z,90.39
2023-04-07T03:59:14.055Z,91.26
2023-04-07T04:00:11.802Z,91.16
2023-04-07T04:04:32.881Z,90.22
2023-04-07T04:05:44.730Z,89.81
2023-04-07T04:06:24.640Z,89.81
2023-04-07T04:07:23.205Z,89.61
2023-04-07T04:08:28.042Z,89.40
2023-04-07T04:09:49.773Z,89.61
2023-04-07T04:10:24.570Z,89.65
2023-04-07T04:11:24.622Z,89.54
2023-04-07T04:12:45.567Z,89.54
2023-04-07T04:13:26.802Z,89.75
2023-04-07T04:14:26.960Z,89.54
2023-04-07T04:15:28.933Z,89.44
2023-04-07T04:16:25.558Z,89.65
2023-04-07T04:17:32.747Z,89.75
2023-04-07T04:18:27.338Z,89.65
2023-04-07T04:19:27.713Z,89.86
2023-04-07T04:20:31.272Z,89.95
2023-04-07T04:21:23.496Z,90.06
2023-04-07T04:22:27.730Z,90.16
2023-04-07T04:23:25.356Z,90.06
2023-04-07T04:24:27.522Z,90.16
2023-04-07T04:25:55.496Z,90.06
2023-04-07T04:26:27.821Z,90.16
2023-04-07T04:27:28.508Z,90.26
2023-04-07T04:28:23.783Z,89.95
2023-04-07T04:29:22.514Z,89.95
2023-04-07T04:30:22.459Z,89.75
2023-04-07T04:31:22.575Z,89.65
2023-04-07T04:32:22.422Z,89.86
2023-04-07T04:33:22.442Z,89.65
2023-04-07T04:34:22.428Z,89.54
2023-04-07T04:35:22.402Z,89.13
2023-04-07T04:36:22.468Z,89.13
2023-04-07T04:37:22.438Z,89.03
2023-04-07T04:38:22.337Z,89.44
2023-04-07T04:39:22.360Z,89.44
2023-04-07T04:40:22.346Z,89.03
2023-04-07T04:41:22.364Z,89.03
2023-04-07T04:42:22.282Z,88.61
2023-04-07T04:43:22.352Z,88.41
2023-04-07T04:44:22.270Z,88.71
2023-04-07T04:45:22.268Z,88.71
2023-04-07T04:46:22.242Z,89.03
2023-04-07T04:47:22.312Z,89.28
2023-04-07T04:48:22.236Z,88.96
2023-04-07T04:49:22.396Z,88.65
2023-04-07T04:50:22.178Z,88.86
2023-04-07T04:51:22.261Z,88.55
2023-04-07T04:52:22.172Z,88.55
2023-04-07T04:53:22.219Z,88.45
2023-04-07T04:54:22.191Z,88.34
2023-04-07T04:55:22.199Z,88.04
2023-04-07T04:56:22.169Z,87.76
2023-04-07T04:57:22.166Z,87.46
2023-04-07T04:58:22.108Z,87.35
2023-04-07T04:59:22.110Z,87.25
2023-04-07T05:00:22.063Z,87.46
2023-04-07T05:01:22.149Z,87.15
2023-04-07T05:02:22.197Z,87.25
2023-04-07T05:03:22.154Z,87.15
2023-04-07T05:04:22.241Z,87.25
2023-04-07T05:05:22.166Z,87.29
2023-04-07T05:06:21.975Z,87.49
2023-04-07T05:07:22.055Z,87.49
2023-04-07T05:08:21.947Z,87.81
2023-04-07T05:09:22.008Z,87.91
2023-04-07T05:10:21.946Z,88.22
2023-04-07T05:11:21.962Z,88.36
2023-04-07T05:12:21.906Z,88.57
2023-04-07T05:13:22.034Z,88.26
2023-04-07T05:14:21.906Z,88.16
2023-04-07T05:15:21.882Z,88.36
2023-04-07T05:16:21.882Z,88.36
2023-04-07T05:17:21.894Z,88.57
2023-04-07T05:18:21.859Z,88.67
2023-04-07T05:19:21.979Z,88.61
2023-04-07T05:20:21.788Z,88.51
2023-04-07T05:21:21.792Z,88.67
2023-04-07T05:22:21.806Z,88.36
2023-04-07T05:23:21.776Z,88.46
2023-04-07T05:24:21.784Z,88.67
2023-04-07T05:25:21.811Z,88.51
2023-04-07T05:26:21.719Z,88.20
2023-04-07T05:27:21.729Z,88.09
2023-04-07T05:28:21.706Z,87.88
2023-04-07T05:29:21.721Z,87.64
2023-04-07T05:30:21.719Z,87.33
2023-04-07T05:31:21.899Z,87.43
2023-04-07T05:32:21.731Z,87.85
2023-04-07T05:33:21.642Z,87.74
2023-04-07T05:34:21.659Z,87.12
2023-04-07T05:35:21.617Z,86.60
2023-04-07T05:36:21.615Z,87.33
2023-04-07T05:37:21.764Z,87.12
2023-04-07T05:38:21.555Z,86.71
2023-04-07T05:39:21.625Z,86.71
2023-04-07T05:40:21.535Z,86.19
2023-04-07T05:41:21.538Z,86.81
2023-04-07T05:42:21.538Z,86.91
2023-04-07T05:43:21.666Z,87.12
2023-04-07T05:44:21.476Z,87.12
2023-04-07T05:45:21.530Z,87.02
2023-04-07T05:46:21.481Z,87.16
2023-04-07T05:47:21.524Z,87.47
2023-04-07T05:48:21.509Z,87.57
2023-04-07T05:49:21.500Z,87.37
2023-04-07T05:50:21.403Z,87.37
2023-04-07T05:51:21.453Z,86.85
2023-04-07T05:52:21.377Z,87.37
2023-04-07T05:53:21.416Z,87.57
2023-04-07T05:54:21.377Z,87.02
2023-04-07T05:55:21.441Z,87.02
2023-04-07T05:56:21.362Z,86.81
2023-04-07T05:57:21.382Z,86.91
2023-04-07T05:58:21.293Z,86.71
2023-04-07T05:59:21.332Z,87.02
2023-04-07T06:00:21.271Z,86.29
2023-04-07T06:01:21.328Z,86.60
2023-04-07T06:02:21.398Z,85.94
2023-04-07T06:03:21.386Z,85.42
2023-04-07T06:04:21.260Z,85.63
2023-04-07T06:05:21.307Z,85.94
2023-04-07T06:06:21.205Z,86.36
2023-04-07T06:07:21.247Z,86.01
2023-04-07T06:08:21.164Z,85.08
2023-04-07T06:09:21.189Z,85.08
2023-04-07T06:10:21.197Z,85.39
2023-04-07T06:11:21.184Z,85.39
2023-04-07T06:12:21.184Z,84.87
2023-04-07T06:13:21.262Z,85.35
2023-04-07T06:14:21.110Z,84.94
2023-04-07T06:15:21.261Z,84.83
2023-04-07T06:16:21.259Z,84.59
2023-04-07T06:17:21.137Z,84.59
2023-04-07T06:18:21.113Z,83.45
2023-04-07T06:19:21.186Z,82.69
2023-04-07T06:20:21.043Z,82.79
2023-04-07T06:21:21.155Z,82.14
2023-04-07T06:22:21.010Z,82.14
2023-04-07T06:23:20.989Z,81.51
2023-04-07T06:24:20.978Z,81.79
2023-04-07T06:25:21.112Z,82.40
2023-04-07T06:26:20.917Z,81.37
2023-04-07T06:27:20.985Z,81.96
2023-04-07T06:28:20.938Z,80.10
2023-04-07T06:29:20.913Z,80.16
2023-04-07T06:30:20.896Z,78.86
2023-04-07T06:31:21.140Z,79.44
2023-04-07T06:32:20.869Z,79.86
2023-04-07T06:33:20.858Z,79.51
2023-04-07T06:34:20.849Z,78.28
2023-04-07T06:35:20.834Z,78.17
2023-04-07T06:36:20.895Z,78.34
2023-04-07T06:37:20.939Z,77.93
2023-04-07T06:38:20.782Z,78.75
2023-04-07T06:39:20.813Z,77.38
2023-04-07T06:40:20.777Z,77.14
2023-04-07T06:41:20.766Z,76.31
2023-04-07T06:42:20.728Z,74.98
2023-04-07T06:43:20.843Z,74.98
2023-04-07T06:44:20.729Z,75.80
2023-04-07T06:45:20.733Z,75.56
2023-04-07T06:46:20.718Z,75.25
2023-04-07T06:47:20.674Z,75.67
2023-04-07T06:48:20.660Z,74.43
2023-04-07T06:49:20.720Z,73.36
2023-04-07T06:50:20.599Z,73.98
2023-04-07T06:51:20.642Z,74.19
2023-04-07T06:52:20.634Z,73.68
2023-04-07T06:53:20.597Z,74.60
2023-04-07T06:54:20.573Z,74.29
2023-04-07T06:55:20.641Z,72.55
2023-04-07T06:56:20.553Z,72.96
2023-04-07T06:57:20.591Z,72.85
2023-04-07T06:58:20.498Z,72.65
2023-04-07T06:59:20.535Z,73.16
2023-04-07T07:00:20.465Z,73.27
2023-04-07T07:01:20.680Z,73.61
2023-04-07T07:02:20.745Z,73.57
2023-04-07T07:03:20.543Z,72.85
2023-04-07T07:04:20.494Z,71.72
2023-04-07T07:05:20.412Z,71.69
2023-04-07T07:06:20.439Z,72.58
2023-04-07T07:07:20.441Z,70.53
2023-04-07T07:08:20.416Z,69.47
2023-04-07T07:09:20.390Z,68.51
2023-04-07T07:10:20.369Z,67.90
2023-04-07T07:11:20.351Z,67.97
2023-04-07T07:12:20.343Z,68.17
2023-04-07T07:13:20.418Z,68.59
2023-04-07T07:14:20.360Z,67.73
2023-04-07T07:15:20.298Z,68.35
2023-04-07T07:16:20.448Z,66.81
2023-04-07T07:17:20.277Z,66.81
2023-04-07T07:18:20.283Z,67.22
2023-04-07T07:19:20.260Z,67.40
2023-04-07T07:20:20.259Z,66.88
2023-04-07T07:21:20.210Z,66.47
2023-04-07T07:22:20.198Z,66.30
2023-04-07T07:23:20.188Z,67.40
2023-04-07T07:24:20.200Z,66.67
2023-04-07T07:25:20.180Z,65.45
2023-04-07T07:26:20.170Z,65.24
2023-04-07T07:27:20.133Z,65.55
2023-04-07T07:28:20.159Z,64.90
2023-04-07T07:29:20.111Z,64.29
2023-04-07T07:30:20.185Z,64.09
2023-04-07T07:31:20.151Z,63.34
2023-04-07T07:32:20.207Z,62.83
2023-04-07T07:33:20.034Z,64.47
2023-04-07T07:34:20.063Z,66.17
2023-04-07T07:35:20.037Z,63.07
2023-04-07T07:36:20.059Z,64.00
2023-04-07T07:37:20.021Z,62.84
2023-04-07T07:38:20.024Z,63.04
2023-04-07T07:39:19.955Z,62.51
2023-04-07T07:40:19.989Z,62.20
2023-04-07T07:41:19.972Z,61.99
2023-04-07T07:42:19.967Z,60.97
2023-04-07T07:43:20.026Z,61.90
2023-04-07T07:44:19.925Z,60.77
2023-04-07T07:45:19.883Z,59.95
2023-04-07T07:46:20.133Z,59.62
2023-04-07T07:47:19.865Z,59.41
2023-04-07T07:48:19.874Z,58.50
2023-04-07T07:49:19.957Z,60.44
2023-04-07T07:50:19.890Z,59.00
2023-04-07T07:51:19.788Z,59.89
2023-04-07T07:52:19.835Z,61.30
2023-04-07T07:53:19.793Z,60.69
2023-04-07T07:54:19.786Z,58.95
2023-04-07T07:55:19.908Z,59.77
2023-04-07T07:56:19.765Z,58.54
2023-04-07T07:57:19.736Z,57.83
2023-04-07T07:58:19.788Z,58.26
2023-04-07T07:59:19.687Z,59.82
2023-04-07T08:00:19.745Z,60.23
2023-04-07T08:01:19.715Z,61.63
2023-04-07T08:02:19.764Z,61.07
2023-04-07T08:03:19.788Z,57.65
2023-04-07T08:04:19.867Z,57.21
2023-04-07T08:05:19.611Z,55.66
2023-04-07T08:06:19.641Z,57.39
2023-04-07T08:07:19.619Z,58.00
2023-04-07T08:08:19.638Z,56.65
2023-04-07T08:09:19.580Z,56.73
2023-04-07T08:10:19.582Z,54.00
2023-04-07T08:11:19.567Z,54.11
2023-04-07T08:12:19.608Z,56.34
2023-04-07T08:13:19.536Z,57.43
2023-04-07T08:14:19.551Z,54.39
2023-04-07T08:15:19.476Z,54.08
2023-04-07T08:16:19.569Z,55.02
2023-04-07T08:17:19.473Z,54.82
2023-04-07T08:18:19.451Z,54.92
2023-04-07T08:19:19.496Z,55.15
2023-04-07T08:20:19.435Z,55.94
2023-04-07T08:21:19.393Z,56.32
2023-04-07T08:22:19.433Z,57.31
2023-04-07T08:23:19.418Z,54.13
2023-04-07T08:24:19.394Z,55.22
2023-04-07T08:25:19.489Z,54.03
2023-04-07T08:26:19.385Z,54.97
2023-04-07T08:27:19.303Z,55.91
2023-04-07T08:28:19.344Z,55.94
2023-04-07T08:29:19.320Z,58.76
2023-04-07T08:30:19.344Z,56.52
2023-04-07T08:31:19.454Z,55.30
2023-04-07T08:32:19.290Z,55.68
2023-04-07T08:33:19.247Z,54.24
2023-04-07T08:34:19.273Z,53.52
2023-04-07T08:35:19.200Z,53.93
2023-04-07T08:36:19.262Z,55.83
2023-04-07T08:37:19.309Z,54.72
2023-04-07T08:38:19.227Z,55.71
2023-04-07T08:39:19.169Z,55.50
2023-04-07T08:40:19.499Z,55.47
2023-04-07T08:41:19.144Z,55.76
2023-04-07T08:42:19.176Z,54.44
2023-04-07T08:43:19.179Z,53.93
2023-04-07T08:44:19.112Z,52.94
2023-04-07T08:45:19.070Z,55.20
2023-04-07T08:46:19.175Z,53.47
2023-04-07T08:47:19.072Z,54.90
2023-04-07T08:48:19.083Z,53.06
2023-04-07T08:49:19.104Z,54.86
2023-04-07T08:50:19.045Z,53.25
2023-04-07T08:51:19.009Z,53.14
2023-04-07T08:52:19.024Z,52.73
2023-04-07T08:53:18.986Z,53.34
2023-04-07T08:54:19.240Z,53.55
2023-04-07T08:55:18.993Z,53.96
2023-04-07T08:56:19.084Z,53.98
2023-04-07T08:57:18.919Z,54.49
2023-04-07T08:58:19.646Z,54.51
2023-04-07T08:59:18.940Z,55.40
2023-04-07T09:00:18.922Z,57.30
2023-04-07T09:01:18.953Z,54.33
2023-04-07T09:02:19.010Z,53.91
2023-04-07T09:03:18.954Z,55.47
2023-04-07T09:04:18.977Z,53.22
2023-04-07T09:05:18.818Z,52.08
2023-04-07T09:06:18.865Z,51.60
2023-04-07T09:07:18.894Z,52.74
2023-04-07T09:08:18.820Z,54.53
2023-04-07T09:09:19.510Z,53.40
2023-04-07T09:10:18.760Z,51.17
2023-04-07T09:11:18.744Z,51.70
2023-04-07T09:12:18.736Z,51.98
2023-04-07T09:13:18.728Z,53.90
2023-04-07T09:14:18.768Z,49.86
2023-04-07T09:15:18.668Z,51.05
2023-04-07T09:16:18.790Z,50.12
2023-04-07T09:17:18.683Z,50.92
2023-04-07T09:18:18.646Z,51.12
2023-04-07T09:19:18.781Z,50.29
2023-04-07T09:20:18.622Z,50.62
2023-04-07T09:21:18.599Z,51.98
2023-04-07T09:22:18.659Z,51.90
2023-04-07T09:23:18.553Z,52.19
2023-04-07T09:24:18.594Z,51.98
2023-04-07T09:25:18.634Z,51.17
2023-04-07T09:26:18.554Z,51.15
2023-04-07T09:27:18.510Z,50.44
2023-04-07T09:28:18.538Z,53.88
2023-04-07T09:29:18.513Z,50.72
2023-04-07T09:30:18.507Z,49.01
2023-04-07T09:31:18.601Z,51.30
2023-04-07T09:32:18.483Z,49.18
2023-04-07T09:33:18.424Z,49.76
2023-04-07T09:34:18.457Z,49.79
2023-04-07T09:35:18.438Z,49.38
2023-04-07T09:36:18.470Z,49.36
2023-04-07T09:37:18.495Z,48.63
2023-04-07T09:38:18.393Z,48.00
2023-04-07T09:39:18.363Z,49.33
2023-04-07T09:40:18.346Z,49.04
2023-04-07T09:41:18.364Z,48.27
2023-04-07T09:42:18.359Z,48.82
2023-04-07T09:43:18.335Z,50.04
2023-04-07T09:44:18.319Z,52.26
2023-04-07T09:45:30.948Z,49.91
2023-04-07T09:46:19.385Z,48.10
2023-04-07T09:47:18.243Z,51.12
2023-04-07T09:48:18.281Z,50.80
2023-04-07T09:49:18.268Z,48.65
2023-04-07T09:50:18.222Z,48.05
2023-04-07T09:51:18.228Z,49.28
2023-04-07T09:52:18.190Z,51.25
2023-04-07T09:53:18.156Z,48.30
2023-04-07T09:54:18.209Z,48.16
2023-04-07T09:55:18.171Z,48.39
2023-04-07T09:56:18.182Z,46.46
2023-04-07T09:57:18.152Z,45.95
2023-04-07T09:58:18.123Z,46.06
2023-04-07T09:59:18.075Z,45.55
2023-04-07T10:00:18.181Z,44.19
2023-04-07T10:01:18.408Z,45.01
2023-04-07T10:02:18.108Z,45.44
2023-04-07T10:03:18.119Z,44.73
2023-04-07T10:04:18.135Z,46.83
2023-04-07T10:05:18.000Z,45.52
2023-04-07T10:06:18.049Z,45.29
2023-04-07T10:07:18.024Z,44.79
2023-04-07T10:08:18.012Z,45.50
2023-04-07T10:09:18.005Z,44.49
2023-04-07T10:10:17.960Z,44.71
2023-04-07T10:11:17.982Z,43.62
2023-04-07T10:12:17.982Z,45.24
2023-04-07T10:13:17.939Z,44.75
2023-04-07T10:14:17.932Z,44.57
2023-04-07T10:15:17.919Z,45.18
2023-04-07T10:16:17.945Z,44.57
2023-04-07T10:17:17.860Z,44.85
2023-04-07T10:18:17.880Z,45.74
2023-04-07T10:19:17.961Z,45.92
2023-04-07T10:20:17.846Z,44.19
2023-04-07T10:21:17.823Z,42.98
2023-04-07T10:22:17.850Z,41.87
2023-04-07T10:23:17.775Z,45.29
2023-04-07T10:24:17.831Z,44.57
2023-04-07T10:25:17.803Z,41.13
2023-04-07T10:26:17.749Z,41.57
2023-04-07T10:27:17.738Z,41.89
2023-04-07T10:28:17.738Z,43.62
2023-04-07T10:29:17.678Z,42.24
2023-04-07T10:30:17.728Z,43.65
2023-04-07T10:31:17.861Z,44.59
2023-04-07T10:32:17.698Z,41.27
2023-04-07T10:33:17.639Z,43.28
2023-04-07T10:34:17.694Z,42.86
2023-04-07T10:35:17.625Z,40.89
2023-04-07T10:36:17.656Z,42.32
2023-04-07T10:37:17.647Z,44.01
2023-04-07T10:38:17.611Z,41.19
2023-04-07T10:39:17.579Z,40.91
2023-04-07T10:40:17.588Z,41.51
2023-04-07T10:41:17.524Z,41.61
2023-04-07T10:42:17.598Z,41.39
2023-04-07T10:43:17.643Z,40.20
2023-04-07T10:44:17.545Z,40.10
2023-04-07T10:45:17.507Z,40.50
2023-04-07T10:46:17.542Z,40.30
2023-04-07T10:47:17.474Z,41.91
2023-04-07T10:48:17.468Z,41.31
2023-04-07T10:49:18.846Z,40.50
2023-04-07T10:50:17.476Z,40.69
2023-04-07T10:51:17.426Z,40.06
2023-04-07T10:52:17.399Z,39.86
2023-04-07T10:53:17.383Z,39.17
2023-04-07T10:54:17.401Z,40.58
2023-04-07T10:55:17.443Z,41.71
2023-04-07T10:56:17.411Z,43.73
2023-04-07T10:57:17.337Z,42.50
2023-04-07T10:58:17.327Z,41.67
2023-04-07T10:59:17.327Z,40.36
2023-04-07T11:00:17.392Z,40.08
2023-04-07T11:01:17.333Z,39.78
2023-04-07T11:02:17.444Z,42.05
2023-04-07T11:03:17.335Z,39.72
2023-04-07T11:04:17.318Z,38.93
2023-04-07T11:05:17.224Z,40.69
2023-04-07T11:06:17.244Z,42.60
2023-04-07T11:07:17.297Z,40.97
2023-04-07T11:08:17.237Z,41.45
2023-04-07T11:09:17.217Z,40.70
2023-04-07T11:10:17.240Z,38.78
2023-04-07T11:11:17.151Z,38.86
2023-04-07T11:12:17.140Z,41.07
2023-04-07T11:13:17.196Z,40.67
2023-04-07T11:14:17.138Z,39.36
2023-04-07T11:15:17.089Z,38.06
2023-04-07T11:16:17.128Z,37.87
2023-04-07T11:17:17.064Z,38.16
2023-04-07T11:18:17.289Z,39.54
2023-04-07T11:19:17.196Z,38.82
2023-04-07T11:20:17.033Z,38.72
2023-04-07T11:21:17.040Z,37.00
2023-04-07T11:22:29.172Z,37.60
2023-04-07T11:23:18.018Z,37.60
2023-04-07T11:24:16.950Z,38.72
2023-04-07T11:25:17.067Z,38.22
2023-04-07T11:26:16.962Z,39.54
2023-04-07T11:27:16.930Z,39.58
2023-04-07T11:28:16.933Z,39.23
2023-04-07T11:29:16.938Z,39.07
2023-04-07T11:30:16.873Z,41.69
2023-04-07T11:31:16.979Z,41.19
2023-04-07T11:32:16.872Z,40.97
2023-04-07T11:33:16.895Z,41.55
2023-04-07T11:34:16.855Z,41.65
2023-04-07T11:35:16.849Z,39.12
2023-04-07T11:36:16.824Z,39.22
2023-04-07T11:37:16.871Z,38.62
2023-04-07T11:38:16.803Z,40.20
2023-04-07T11:39:16.778Z,39.92
2023-04-07T11:40:16.790Z,40.04
2023-04-07T11:41:16.813Z,39.84
2023-04-07T11:42:16.714Z,38.51
2023-04-07T11:43:16.882Z,41.93
2023-04-07T11:44:16.688Z,40.00
2023-04-07T11:45:16.702Z,38.28
2023-04-07T11:46:16.751Z,40.79
2023-04-07T11:47:16.677Z,39.36
2023-04-07T11:48:16.663Z,39.95
2023-04-07T11:49:16.804Z,39.42
2023-04-07T11:50:16.605Z,40.21
2023-04-07T11:51:16.626Z,37.92
2023-04-07T11:52:16.602Z,36.54
2023-04-07T11:53:16.633Z,38.34
2023-04-07T11:54:16.548Z,38.53
2023-04-07T11:55:16.710Z,37.42
2023-04-07T11:56:16.549Z,38.86
2023-04-07T11:57:16.537Z,38.40
2023-04-07T11:58:16.530Z,38.40
2023-04-07T11:59:16.508Z,39.28
2023-04-07T12:00:16.572Z,37.49
2023-04-07T12:01:16.640Z,39.08
2023-04-07T12:02:16.540Z,41.47
2023-04-07T12:03:16.643Z,38.66
2023-04-07T12:04:16.561Z,36.83
2023-04-07T12:05:16.425Z,36.36
2023-04-07T12:06:16.439Z,38.62
2023-04-07T12:07:16.465Z,38.23
2023-04-07T12:08:16.356Z,38.75
2023-04-07T12:09:16.383Z,39.88
2023-04-07T12:10:16.373Z,38.81
2023-04-07T12:11:16.349Z,40.42
2023-04-07T12:12:16.364Z,42.35
2023-04-07T12:13:16.468Z,41.27
2023-04-07T12:14:16.299Z,45.12
2023-04-07T12:15:16.328Z,42.80
2023-04-07T12:16:16.277Z,43.91
2023-04-07T12:17:16.284Z,43.23
2023-04-07T12:18:16.251Z,42.21
2023-04-07T12:19:16.452Z,42.03
2023-04-07T12:20:16.249Z,41.35
2023-04-07T12:21:16.235Z,41.06
2023-04-07T12:22:16.191Z,43.30
2023-04-07T12:23:16.228Z,46.83
2023-04-07T12:24:16.147Z,46.20
2023-04-07T12:25:16.176Z,43.75
2023-04-07T12:26:16.149Z,42.11
2023-04-07T12:27:16.138Z,42.61
2023-04-07T12:28:16.134Z,42.92
2023-04-07T12:29:16.153Z,41.61
2023-04-07T12:30:16.079Z,42.41
2023-04-07T12:31:16.146Z,41.42
2023-04-07T12:32:16.102Z,40.82
2023-04-07T12:33:16.048Z,43.95
2023-04-07T12:34:16.052Z,43.75
2023-04-07T12:35:16.056Z,41.83
2023-04-07T12:36:16.011Z,42.23
2023-04-07T12:37:16.080Z,43.24
2023-04-07T12:38:15.970Z,43.44
2023-04-07T12:39:15.980Z,41.42
2023-04-07T12:40:15.991Z,46.17
2023-04-07T12:41:15.992Z,43.02
2023-04-07T12:42:15.898Z,41.10
2023-04-07T12:43:16.401Z,42.80
2023-04-07T12:44:15.898Z,40.28
2023-04-07T12:45:15.884Z,42.32
2023-04-07T12:46:15.943Z,40.90
2023-04-07T12:47:15.866Z,40.19
2023-04-07T12:48:15.884Z,44.43
2023-04-07T12:49:15.894Z,41.99
2023-04-07T12:50:15.803Z,38.98
2023-04-07T12:51:15.846Z,43.80
2023-04-07T16:35:09.337Z,39.85
2023-04-07T16:35:14.265Z,32.67
2023-04-07T16:36:14.100Z,34.29
2023-04-07T16:37:14.073Z,35.61
2023-04-07T16:38:14.026Z,35.65
2023-04-07T16:39:14.037Z,35.36
2023-04-07T16:40:14.164Z,36.57
2023-04-07T16:41:14.039Z,35.65
2023-04-07T16:42:14.165Z,35.83
2023-04-07T16:43:13.919Z,36.64
2023-04-07T16:44:13.859Z,36.44
2023-04-07T16:45:13.909Z,36.33
2023-04-07T16:46:13.982Z,35.86
2023-04-07T16:47:13.829Z,36.57
2023-04-07T16:48:13.818Z,37.09